sensor_id;sensor_type;location;lat;lon;timestamp;P1;durP1;ratioP1;P2;durP2;ratioP2
59024;SDS011;44806;48.008;13.666;2023-05-07T00:02:07;4.20;;;1.80;;
59024;SDS011;44806;48.008;13.666;2023-05-07T00:04:34;6.00;;;2.25;;
59024;SDS011;44806;48.008;13.666;2023-05-07T00:07:04;4.43;;;2.03;;
59024;SDS011;44806;48.008;13.666;2023-05-07T00:09:31;8.02;;;2.00;;
59024;SDS011;44806;48.008;13.666;2023-05-07T00:11:58;4.65;;;2.10;;
59024;SDS011;44806;48.008;13.666;2023-05-07T00:14:25;3.88;;;1.77;;
59024;SDS011;44806;48.008;13.666;2023-05-07T00:16:52;4.10;;;1.77;;
59024;SDS011;44806;48.008;13.666;2023-05-07T00:19:19;5.75;;;2.15;;
59024;SDS011;44806;48.008;13.666;2023-05-07T00:21:46;6.50;;;2.10;;
59024;SDS011;44806;48.008;13.666;2023-05-07T00:24:14;4.47;;;1.95;;
59024;SDS011;44806;48.008;13.666;2023-05-07T00:26:41;6.97;;;1.52;;
59024;SDS011;44806;48.008;13.666;2023-05-07T00:29:08;5.50;;;1.77;;
59024;SDS011;44806;48.008;13.666;2023-05-07T00:31:35;4.70;;;1.83;;
59024;SDS011;44806;48.008;13.666;2023-05-07T00:34:02;5.80;;;1.88;;
59024;SDS011;44806;48.008;13.666;2023-05-07T00:36:29;4.90;;;1.90;;
59024;SDS011;44806;48.008;13.666;2023-05-07T00:38:56;4.80;;;1.60;;
59024;SDS011;44806;48.008;13.666;2023-05-07T00:41:26;6.82;;;1.73;;
59024;SDS011;44806;48.008;13.666;2023-05-07T00:43:53;3.15;;;1.15;;
59024;SDS011;44806;48.008;13.666;2023-05-07T00:46:21;8.10;;;2.17;;
59024;SDS011;44806;48.008;13.666;2023-05-07T00:48:48;6.20;;;1.85;;
59024;SDS011;44806;48.008;13.666;2023-05-07T00:51:16;7.10;;;2.00;;
59024;SDS011;44806;48.008;13.666;2023-05-07T00:53:44;5.15;;;1.95;;
59024;SDS011;44806;48.008;13.666;2023-05-07T00:56:12;3.78;;;1.45;;
59024;SDS011;44806;48.008;13.666;2023-05-07T00:58:41;4.82;;;1.58;;
59024;SDS011;44806;48.008;13.666;2023-05-07T01:01:08;5.18;;;1.10;;
59024;SDS011;44806;48.008;13.666;2023-05-07T01:03:35;3.97;;;1.77;;
59024;SDS011;44806;48.008;13.666;2023-05-07T01:06:03;4.45;;;1.77;;
59024;SDS011;44806;48.008;13.666;2023-05-07T01:08:32;3.83;;;1.55;;
59024;SDS011;44806;48.008;13.666;2023-05-07T01:11:00;4.85;;;1.92;;
59024;SDS011;44806;48.008;13.666;2023-05-07T01:13:27;9.80;;;1.90;;
59024;SDS011;44806;48.008;13.666;2023-05-07T01:15:56;5.07;;;1.60;;
59024;SDS011;44806;48.008;13.666;2023-05-07T01:18:23;3.92;;;1.60;;
59024;SDS011;44806;48.008;13.666;2023-05-07T01:20:51;3.47;;;1.50;;
59024;SDS011;44806;48.008;13.666;2023-05-07T01:23:19;4.65;;;1.92;;
59024;SDS011;44806;48.008;13.666;2023-05-07T01:25:50;4.28;;;1.50;;
59024;SDS011;44806;48.008;13.666;2023-05-07T01:28:19;8.35;;;2.10;;
59024;SDS011;44806;48.008;13.666;2023-05-07T01:30:46;3.90;;;1.27;;
59024;SDS011;44806;48.008;13.666;2023-05-07T01:33:18;4.60;;;1.52;;
59024;SDS011;44806;48.008;13.666;2023-05-07T01:35:48;6.20;;;1.70;;
59024;SDS011;44806;48.008;13.666;2023-05-07T01:38:20;4.20;;;1.70;;
59024;SDS011;44806;48.008;13.666;2023-05-07T01:40:48;4.00;;;1.30;;
59024;SDS011;44806;48.008;13.666;2023-05-07T01:43:15;5.35;;;1.55;;
59024;SDS011;44806;48.008;13.666;2023-05-07T01:45:43;10.98;;;2.70;;
59024;SDS011;44806;48.008;13.666;2023-05-07T01:48:11;4.28;;;1.67;;
59024;SDS011;44806;48.008;13.666;2023-05-07T01:50:38;5.32;;;2.08;;
59024;SDS011;44806;48.008;13.666;2023-05-07T01:53:06;5.30;;;2.22;;
59024;SDS011;44806;48.008;13.666;2023-05-07T01:55:34;5.22;;;2.00;;
59024;SDS011;44806;48.008;13.666;2023-05-07T01:58:02;4.15;;;2.05;;
59024;SDS011;44806;48.008;13.666;2023-05-07T02:00:29;5.30;;;2.60;;
59024;SDS011;44806;48.008;13.666;2023-05-07T02:02:56;3.75;;;1.98;;
59024;SDS011;44806;48.008;13.666;2023-05-07T02:05:23;5.00;;;2.08;;
59024;SDS011;44806;48.008;13.666;2023-05-07T02:07:50;6.43;;;2.17;;
59024;SDS011;44806;48.008;13.666;2023-05-07T02:10:17;5.25;;;2.08;;
59024;SDS011;44806;48.008;13.666;2023-05-07T02:12:45;5.13;;;2.33;;
59024;SDS011;44806;48.008;13.666;2023-05-07T02:15:12;3.97;;;1.70;;
59024;SDS011;44806;48.008;13.666;2023-05-07T02:17:39;4.15;;;1.67;;
59024;SDS011;44806;48.008;13.666;2023-05-07T02:20:21;4.25;;;1.77;;
59024;SDS011;44806;48.008;13.666;2023-05-07T02:22:48;4.78;;;1.80;;
59024;SDS011;44806;48.008;13.666;2023-05-07T02:25:15;4.47;;;1.88;;
59024;SDS011;44806;48.008;13.666;2023-05-07T02:27:42;5.70;;;2.22;;
59024;SDS011;44806;48.008;13.666;2023-05-07T02:30:11;5.63;;;1.70;;
59024;SDS011;44806;48.008;13.666;2023-05-07T02:32:38;4.72;;;2.20;;
59024;SDS011;44806;48.008;13.666;2023-05-07T02:35:05;7.13;;;2.28;;
59024;SDS011;44806;48.008;13.666;2023-05-07T02:37:33;7.68;;;2.80;;
59024;SDS011;44806;48.008;13.666;2023-05-07T02:40:00;4.47;;;1.65;;
59024;SDS011;44806;48.008;13.666;2023-05-07T02:42:29;3.00;;;1.48;;
59024;SDS011;44806;48.008;13.666;2023-05-07T02:44:56;4.25;;;2.10;;
59024;SDS011;44806;48.008;13.666;2023-05-07T02:47:24;6.18;;;2.65;;
59024;SDS011;44806;48.008;13.666;2023-05-07T02:49:53;8.15;;;2.92;;
59024;SDS011;44806;48.008;13.666;2023-05-07T02:52:20;5.82;;;2.20;;
59024;SDS011;44806;48.008;13.666;2023-05-07T02:54:47;5.22;;;2.03;;
59024;SDS011;44806;48.008;13.666;2023-05-07T02:57:14;4.40;;;1.95;;
59024;SDS011;44806;48.008;13.666;2023-05-07T02:59:41;6.03;;;2.42;;
59024;SDS011;44806;48.008;13.666;2023-05-07T03:02:08;5.22;;;2.05;;
59024;SDS011;44806;48.008;13.666;2023-05-07T03:04:37;4.72;;;1.73;;
59024;SDS011;44806;48.008;13.666;2023-05-07T03:07:06;5.38;;;2.15;;
59024;SDS011;44806;48.008;13.666;2023-05-07T03:09:33;4.22;;;1.90;;
59024;SDS011;44806;48.008;13.666;2023-05-07T03:11:59;6.03;;;2.35;;
59024;SDS011;44806;48.008;13.666;2023-05-07T03:14:27;4.03;;;1.73;;
59024;SDS011;44806;48.008;13.666;2023-05-07T03:16:54;5.97;;;2.10;;
59024;SDS011;44806;48.008;13.666;2023-05-07T03:19:21;4.85;;;2.10;;
59024;SDS011;44806;48.008;13.666;2023-05-07T03:21:49;4.88;;;1.77;;
59024;SDS011;44806;48.008;13.666;2023-05-07T03:24:16;3.83;;;1.90;;
59024;SDS011;44806;48.008;13.666;2023-05-07T03:26:43;5.68;;;2.40;;
59024;SDS011;44806;48.008;13.666;2023-05-07T03:29:10;5.55;;;2.47;;
59024;SDS011;44806;48.008;13.666;2023-05-07T03:31:37;4.65;;;2.03;;
59024;SDS011;44806;48.008;13.666;2023-05-07T03:34:04;4.57;;;1.77;;
59024;SDS011;44806;48.008;13.666;2023-05-07T03:36:31;6.28;;;2.85;;
59024;SDS011;44806;48.008;13.666;2023-05-07T03:38:59;7.30;;;2.50;;
59024;SDS011;44806;48.008;13.666;2023-05-07T03:41:26;5.88;;;2.85;;
59024;SDS011;44806;48.008;13.666;2023-05-07T03:43:54;5.55;;;2.38;;
59024;SDS011;44806;48.008;13.666;2023-05-07T03:46:21;4.32;;;1.80;;
59024;SDS011;44806;48.008;13.666;2023-05-07T03:48:51;5.60;;;2.25;;
59024;SDS011;44806;48.008;13.666;2023-05-07T03:51:18;4.43;;;1.83;;
59024;SDS011;44806;48.008;13.666;2023-05-07T03:53:44;6.40;;;2.13;;
59024;SDS011;44806;48.008;13.666;2023-05-07T03:56:13;5.90;;;2.45;;
59024;SDS011;44806;48.008;13.666;2023-05-07T03:58:40;6.30;;;2.00;;
59024;SDS011;44806;48.008;13.666;2023-05-07T04:01:07;4.22;;;1.75;;
59024;SDS011;44806;48.008;13.666;2023-05-07T04:03:34;4.95;;;2.25;;
59024;SDS011;44806;48.008;13.666;2023-05-07T04:06:01;5.32;;;2.10;;
59024;SDS011;44806;48.008;13.666;2023-05-07T04:08:28;6.75;;;2.75;;
59024;SDS011;44806;48.008;13.666;2023-05-07T04:10:55;5.28;;;2.22;;
59024;SDS011;44806;48.008;13.666;2023-05-07T04:13:24;6.43;;;2.50;;
59024;SDS011;44806;48.008;13.666;2023-05-07T04:15:51;4.60;;;1.85;;
59024;SDS011;44806;48.008;13.666;2023-05-07T04:18:18;5.68;;;2.53;;
59024;SDS011;44806;48.008;13.666;2023-05-07T04:20:47;6.00;;;2.45;;
59024;SDS011;44806;48.008;13.666;2023-05-07T04:23:14;6.60;;;2.80;;
59024;SDS011;44806;48.008;13.666;2023-05-07T04:25:41;8.63;;;2.33;;
59024;SDS011;44806;48.008;13.666;2023-05-07T04:28:08;5.78;;;2.20;;
59024;SDS011;44806;48.008;13.666;2023-05-07T04:30:36;5.57;;;2.90;;
59024;SDS011;44806;48.008;13.666;2023-05-07T04:33:03;5.35;;;2.13;;
59024;SDS011;44806;48.008;13.666;2023-05-07T04:35:31;5.95;;;2.50;;
59024;SDS011;44806;48.008;13.666;2023-05-07T04:37:58;6.10;;;2.38;;
59024;SDS011;44806;48.008;13.666;2023-05-07T04:40:25;6.70;;;3.20;;
59024;SDS011;44806;48.008;13.666;2023-05-07T04:42:52;7.20;;;3.55;;
59024;SDS011;44806;48.008;13.666;2023-05-07T04:45:19;7.35;;;3.35;;
59024;SDS011;44806;48.008;13.666;2023-05-07T04:47:48;4.55;;;2.42;;
59024;SDS011;44806;48.008;13.666;2023-05-07T04:50:15;5.68;;;2.53;;
59024;SDS011;44806;48.008;13.666;2023-05-07T04:52:44;6.38;;;2.83;;
59024;SDS011;44806;48.008;13.666;2023-05-07T04:55:11;7.93;;;3.83;;
59024;SDS011;44806;48.008;13.666;2023-05-07T04:57:38;7.70;;;3.67;;
59024;SDS011;44806;48.008;13.666;2023-05-07T05:00:06;7.85;;;3.63;;
59024;SDS011;44806;48.008;13.666;2023-05-07T05:02:35;6.40;;;3.13;;
59024;SDS011;44806;48.008;13.666;2023-05-07T05:05:04;8.55;;;4.07;;
59024;SDS011;44806;48.008;13.666;2023-05-07T05:07:32;6.60;;;3.53;;
59024;SDS011;44806;48.008;13.666;2023-05-07T05:09:59;7.88;;;3.70;;
59024;SDS011;44806;48.008;13.666;2023-05-07T05:12:25;6.95;;;3.22;;
59024;SDS011;44806;48.008;13.666;2023-05-07T05:14:53;10.25;;;4.28;;
59024;SDS011;44806;48.008;13.666;2023-05-07T05:17:20;9.40;;;3.80;;
59024;SDS011;44806;48.008;13.666;2023-05-07T05:19:47;9.57;;;4.55;;
59024;SDS011;44806;48.008;13.666;2023-05-07T05:22:15;7.85;;;4.30;;
59024;SDS011;44806;48.008;13.666;2023-05-07T05:24:42;7.40;;;3.50;;
59024;SDS011;44806;48.008;13.666;2023-05-07T05:27:09;10.20;;;3.63;;
59024;SDS011;44806;48.008;13.666;2023-05-07T05:29:36;8.32;;;2.88;;
59024;SDS011;44806;48.008;13.666;2023-05-07T05:32:03;7.30;;;3.10;;
59024;SDS011;44806;48.008;13.666;2023-05-07T05:34:30;8.45;;;4.00;;
59024;SDS011;44806;48.008;13.666;2023-05-07T05:36:58;6.57;;;3.38;;
59024;SDS011;44806;48.008;13.666;2023-05-07T05:39:26;8.90;;;3.83;;
59024;SDS011;44806;48.008;13.666;2023-05-07T05:41:53;8.43;;;3.60;;
59024;SDS011;44806;48.008;13.666;2023-05-07T05:44:20;6.32;;;2.85;;
59024;SDS011;44806;48.008;13.666;2023-05-07T05:46:47;7.38;;;3.22;;
59024;SDS011;44806;48.008;13.666;2023-05-07T05:49:15;6.85;;;3.38;;
59024;SDS011;44806;48.008;13.666;2023-05-07T05:51:42;7.38;;;3.17;;
59024;SDS011;44806;48.008;13.666;2023-05-07T05:54:10;6.10;;;2.50;;
59024;SDS011;44806;48.008;13.666;2023-05-07T05:56:38;5.57;;;2.28;;
59024;SDS011;44806;48.008;13.666;2023-05-07T05:59:05;6.35;;;2.50;;
59024;SDS011;44806;48.008;13.666;2023-05-07T06:01:32;9.27;;;2.33;;
59024;SDS011;44806;48.008;13.666;2023-05-07T06:03:59;5.63;;;2.72;;
59024;SDS011;44806;48.008;13.666;2023-05-07T06:06:26;7.15;;;2.90;;
59024;SDS011;44806;48.008;13.666;2023-05-07T06:08:53;7.28;;;2.97;;
59024;SDS011;44806;48.008;13.666;2023-05-07T06:11:20;6.70;;;3.22;;
59024;SDS011;44806;48.008;13.666;2023-05-07T06:13:49;4.97;;;2.58;;
59024;SDS011;44806;48.008;13.666;2023-05-07T06:16:16;6.63;;;2.95;;
59024;SDS011;44806;48.008;13.666;2023-05-07T06:18:42;5.68;;;2.42;;
59024;SDS011;44806;48.008;13.666;2023-05-07T06:21:10;6.07;;;2.80;;
59024;SDS011;44806;48.008;13.666;2023-05-07T06:23:37;7.13;;;3.22;;
59024;SDS011;44806;48.008;13.666;2023-05-07T06:26:05;6.25;;;2.15;;
59024;SDS011;44806;48.008;13.666;2023-05-07T06:28:33;6.43;;;2.53;;
59024;SDS011;44806;48.008;13.666;2023-05-07T06:31:12;5.25;;;1.80;;
59024;SDS011;44806;48.008;13.666;2023-05-07T06:33:39;5.97;;;2.20;;
59024;SDS011;44806;48.008;13.666;2023-05-07T06:36:06;6.05;;;2.58;;
59024;SDS011;44806;48.008;13.666;2023-05-07T06:38:33;8.93;;;3.60;;
59024;SDS011;44806;48.008;13.666;2023-05-07T06:41:00;4.85;;;2.13;;
59024;SDS011;44806;48.008;13.666;2023-05-07T06:43:27;4.95;;;1.98;;
59024;SDS011;44806;48.008;13.666;2023-05-07T06:45:54;5.85;;;2.40;;
59024;SDS011;44806;48.008;13.666;2023-05-07T06:48:23;5.10;;;2.55;;
59024;SDS011;44806;48.008;13.666;2023-05-07T06:50:50;7.88;;;2.72;;
59024;SDS011;44806;48.008;13.666;2023-05-07T06:53:17;5.68;;;2.65;;
59024;SDS011;44806;48.008;13.666;2023-05-07T06:55:44;10.25;;;3.28;;
59024;SDS011;44806;48.008;13.666;2023-05-07T06:58:10;5.75;;;2.80;;
59024;SDS011;44806;48.008;13.666;2023-05-07T07:00:38;7.93;;;3.20;;
59024;SDS011;44806;48.008;13.666;2023-05-07T07:03:05;6.68;;;3.13;;
59024;SDS011;44806;48.008;13.666;2023-05-07T07:05:34;7.18;;;3.58;;
59024;SDS011;44806;48.008;13.666;2023-05-07T07:08:01;5.93;;;2.92;;
59024;SDS011;44806;48.008;13.666;2023-05-07T07:10:28;6.78;;;3.00;;
59024;SDS011;44806;48.008;13.666;2023-05-07T07:12:55;7.20;;;3.45;;
59024;SDS011;44806;48.008;13.666;2023-05-07T07:15:22;6.43;;;2.85;;
59024;SDS011;44806;48.008;13.666;2023-05-07T07:17:50;6.43;;;3.00;;
59024;SDS011;44806;48.008;13.666;2023-05-07T07:20:17;7.00;;;3.10;;
59024;SDS011;44806;48.008;13.666;2023-05-07T07:22:45;7.40;;;3.83;;
59024;SDS011;44806;48.008;13.666;2023-05-07T07:25:12;6.45;;;2.97;;
59024;SDS011;44806;48.008;13.666;2023-05-07T07:27:39;9.40;;;3.33;;
59024;SDS011;44806;48.008;13.666;2023-05-07T07:30:06;6.18;;;2.45;;
59024;SDS011;44806;48.008;13.666;2023-05-07T07:32:34;5.97;;;2.42;;
59024;SDS011;44806;48.008;13.666;2023-05-07T07:35:00;5.38;;;2.47;;
59024;SDS011;44806;48.008;13.666;2023-05-07T07:37:27;6.35;;;2.95;;
59024;SDS011;44806;48.008;13.666;2023-05-07T07:39:56;7.80;;;3.00;;
59024;SDS011;44806;48.008;13.666;2023-05-07T07:42:23;4.70;;;2.47;;
59024;SDS011;44806;48.008;13.666;2023-05-07T07:44:50;6.47;;;3.25;;
59024;SDS011;44806;48.008;13.666;2023-05-07T07:47:17;5.63;;;2.47;;
59024;SDS011;44806;48.008;13.666;2023-05-07T07:49:44;5.50;;;2.20;;
59024;SDS011;44806;48.008;13.666;2023-05-07T07:52:11;6.45;;;2.67;;
59024;SDS011;44806;48.008;13.666;2023-05-07T07:54:38;6.13;;;3.17;;
59024;SDS011;44806;48.008;13.666;2023-05-07T07:57:06;6.00;;;3.00;;
59024;SDS011;44806;48.008;13.666;2023-05-07T07:59:33;7.85;;;3.17;;
59024;SDS011;44806;48.008;13.666;2023-05-07T08:02:00;6.38;;;3.40;;
59024;SDS011;44806;48.008;13.666;2023-05-07T08:04:27;6.63;;;3.22;;
59024;SDS011;44806;48.008;13.666;2023-05-07T08:06:53;6.53;;;3.00;;
59024;SDS011;44806;48.008;13.666;2023-05-07T08:09:21;7.45;;;3.67;;
59024;SDS011;44806;48.008;13.666;2023-05-07T08:11:48;7.07;;;3.35;;
59024;SDS011;44806;48.008;13.666;2023-05-07T08:14:16;8.20;;;3.85;;
59024;SDS011;44806;48.008;13.666;2023-05-07T08:16:43;7.88;;;3.33;;
59024;SDS011;44806;48.008;13.666;2023-05-07T08:19:10;7.15;;;3.67;;
59024;SDS011;44806;48.008;13.666;2023-05-07T08:21:38;9.48;;;2.38;;
59024;SDS011;44806;48.008;13.666;2023-05-07T08:24:06;7.55;;;3.17;;
59024;SDS011;44806;48.008;13.666;2023-05-07T08:26:33;7.53;;;3.63;;
59024;SDS011;44806;48.008;13.666;2023-05-07T08:29:01;8.80;;;3.90;;
59024;SDS011;44806;48.008;13.666;2023-05-07T08:31:29;7.20;;;3.38;;
59024;SDS011;44806;48.008;13.666;2023-05-07T08:33:56;6.43;;;3.28;;
59024;SDS011;44806;48.008;13.666;2023-05-07T08:36:24;6.00;;;2.65;;
59024;SDS011;44806;48.008;13.666;2023-05-07T08:38:51;7.32;;;3.75;;
59024;SDS011;44806;48.008;13.666;2023-05-07T08:41:18;7.82;;;3.20;;
59024;SDS011;44806;48.008;13.666;2023-05-07T08:43:47;7.28;;;3.45;;
59024;SDS011;44806;48.008;13.666;2023-05-07T08:46:16;7.70;;;3.55;;
59024;SDS011;44806;48.008;13.666;2023-05-07T08:48:46;6.95;;;3.65;;
59024;SDS011;44806;48.008;13.666;2023-05-07T08:51:15;7.55;;;4.00;;
59024;SDS011;44806;48.008;13.666;2023-05-07T08:53:43;9.55;;;5.15;;
59024;SDS011;44806;48.008;13.666;2023-05-07T08:56:11;6.97;;;3.90;;
59024;SDS011;44806;48.008;13.666;2023-05-07T08:58:38;6.50;;;3.35;;
59024;SDS011;44806;48.008;13.666;2023-05-07T09:01:06;8.05;;;4.60;;
59024;SDS011;44806;48.008;13.666;2023-05-07T09:03:36;7.82;;;4.85;;
59024;SDS011;44806;48.008;13.666;2023-05-07T09:06:05;8.73;;;4.78;;
59024;SDS011;44806;48.008;13.666;2023-05-07T09:08:33;9.93;;;4.82;;
59024;SDS011;44806;48.008;13.666;2023-05-07T09:11:01;9.77;;;5.40;;
59024;SDS011;44806;48.008;13.666;2023-05-07T09:13:28;8.80;;;4.85;;
59024;SDS011;44806;48.008;13.666;2023-05-07T09:15:56;9.45;;;5.55;;
59024;SDS011;44806;48.008;13.666;2023-05-07T09:18:23;8.00;;;5.07;;
59024;SDS011;44806;48.008;13.666;2023-05-07T09:20:50;7.93;;;4.43;;
59024;SDS011;44806;48.008;13.666;2023-05-07T09:23:19;10.57;;;5.20;;
59024;SDS011;44806;48.008;13.666;2023-05-07T09:25:47;7.75;;;4.40;;
59024;SDS011;44806;48.008;13.666;2023-05-07T09:28:13;9.95;;;5.60;;
59024;SDS011;44806;48.008;13.666;2023-05-07T09:30:40;9.30;;;5.43;;
59024;SDS011;44806;48.008;13.666;2023-05-07T09:33:07;6.93;;;3.85;;
59024;SDS011;44806;48.008;13.666;2023-05-07T09:35:34;8.85;;;4.80;;
59024;SDS011;44806;48.008;13.666;2023-05-07T09:38:01;9.43;;;5.20;;
59024;SDS011;44806;48.008;13.666;2023-05-07T09:40:30;8.63;;;5.15;;
59024;SDS011;44806;48.008;13.666;2023-05-07T09:43:07;10.52;;;6.45;;
59024;SDS011;44806;48.008;13.666;2023-05-07T09:45:35;11.27;;;6.38;;
59024;SDS011;44806;48.008;13.666;2023-05-07T09:48:04;8.90;;;5.57;;
59024;SDS011;44806;48.008;13.666;2023-05-07T09:50:34;10.10;;;6.22;;
59024;SDS011;44806;48.008;13.666;2023-05-07T09:53:03;8.45;;;5.10;;
59024;SDS011;44806;48.008;13.666;2023-05-07T09:55:32;9.90;;;5.90;;
59024;SDS011;44806;48.008;13.666;2023-05-07T09:57:59;10.52;;;5.85;;
59024;SDS011;44806;48.008;13.666;2023-05-07T10:00:27;10.20;;;5.60;;
59024;SDS011;44806;48.008;13.666;2023-05-07T10:02:57;10.70;;;5.78;;
59024;SDS011;44806;48.008;13.666;2023-05-07T10:05:24;11.57;;;5.70;;
59024;SDS011;44806;48.008;13.666;2023-05-07T10:07:52;8.80;;;5.07;;
59024;SDS011;44806;48.008;13.666;2023-05-07T10:10:20;7.55;;;4.25;;
59024;SDS011;44806;48.008;13.666;2023-05-07T10:12:50;10.40;;;5.82;;
59024;SDS011;44806;48.008;13.666;2023-05-07T10:15:17;7.60;;;4.47;;
59024;SDS011;44806;48.008;13.666;2023-05-07T10:17:45;7.80;;;4.60;;
59024;SDS011;44806;48.008;13.666;2023-05-07T10:20:14;7.55;;;4.65;;
59024;SDS011;44806;48.008;13.666;2023-05-07T10:22:42;8.32;;;4.72;;
59024;SDS011;44806;48.008;13.666;2023-05-07T10:25:14;10.25;;;5.90;;
59024;SDS011;44806;48.008;13.666;2023-05-07T10:27:43;8.50;;;5.32;;
59024;SDS011;44806;48.008;13.666;2023-05-07T10:30:15;9.45;;;4.65;;
59024;SDS011;44806;48.008;13.666;2023-05-07T10:32:53;9.80;;;5.20;;
59024;SDS011;44806;48.008;13.666;2023-05-07T10:35:24;7.25;;;4.43;;
59024;SDS011;44806;48.008;13.666;2023-05-07T10:37:53;7.82;;;4.28;;
59024;SDS011;44806;48.008;13.666;2023-05-07T10:40:21;7.47;;;4.55;;
59024;SDS011;44806;48.008;13.666;2023-05-07T10:42:54;8.68;;;5.20;;
59024;SDS011;44806;48.008;13.666;2023-05-07T10:45:24;7.95;;;4.20;;
59024;SDS011;44806;48.008;13.666;2023-05-07T10:48:11;10.55;;;4.90;;
59024;SDS011;44806;48.008;13.666;2023-05-07T10:50:39;10.95;;;5.35;;
59024;SDS011;44806;48.008;13.666;2023-05-07T10:53:22;8.10;;;4.47;;
59024;SDS011;44806;48.008;13.666;2023-05-07T10:58:51;8.02;;;5.38;;
59024;SDS011;44806;48.008;13.666;2023-05-07T11:04:18;10.80;;;5.30;;
59024;SDS011;44806;48.008;13.666;2023-05-07T11:09:59;7.75;;;4.97;;
59024;SDS011;44806;48.008;13.666;2023-05-07T11:12:51;7.63;;;5.25;;
59024;SDS011;44806;48.008;13.666;2023-05-07T11:15:41;7.15;;;5.03;;
59024;SDS011;44806;48.008;13.666;2023-05-07T11:18:12;7.22;;;3.85;;
59024;SDS011;44806;48.008;13.666;2023-05-07T11:20:46;6.35;;;4.75;;
59024;SDS011;44806;48.008;13.666;2023-05-07T11:26:26;6.20;;;4.38;;
59024;SDS011;44806;48.008;13.666;2023-05-07T11:28:55;7.13;;;3.78;;
59024;SDS011;44806;48.008;13.666;2023-05-07T11:31:23;6.00;;;3.58;;
59024;SDS011;44806;48.008;13.666;2023-05-07T11:33:53;7.32;;;3.90;;
59024;SDS011;44806;48.008;13.666;2023-05-07T11:36:22;7.95;;;4.40;;
59024;SDS011;44806;48.008;13.666;2023-05-07T11:38:51;6.13;;;4.47;;
59024;SDS011;44806;48.008;13.666;2023-05-07T11:41:18;6.55;;;4.38;;
59024;SDS011;44806;48.008;13.666;2023-05-07T11:43:55;9.30;;;4.13;;
59024;SDS011;44806;48.008;13.666;2023-05-07T11:46:23;6.40;;;3.97;;
59024;SDS011;44806;48.008;13.666;2023-05-07T11:48:50;7.72;;;3.72;;
59024;SDS011;44806;48.008;13.666;2023-05-07T11:51:21;6.05;;;4.00;;
59024;SDS011;44806;48.008;13.666;2023-05-07T11:53:51;5.72;;;3.70;;
59024;SDS011;44806;48.008;13.666;2023-05-07T11:56:18;5.72;;;3.38;;
59024;SDS011;44806;48.008;13.666;2023-05-07T11:58:46;6.22;;;4.10;;
59024;SDS011;44806;48.008;13.666;2023-05-07T12:01:14;5.13;;;2.45;;
59024;SDS011;44806;48.008;13.666;2023-05-07T12:03:43;6.45;;;3.95;;
59024;SDS011;44806;48.008;13.666;2023-05-07T12:06:12;5.82;;;3.58;;
59024;SDS011;44806;48.008;13.666;2023-05-07T12:08:43;6.93;;;4.20;;
59024;SDS011;44806;48.008;13.666;2023-05-07T12:11:13;5.53;;;3.60;;
59024;SDS011;44806;48.008;13.666;2023-05-07T12:13:42;5.70;;;3.65;;
59024;SDS011;44806;48.008;13.666;2023-05-07T12:16:09;5.05;;;2.97;;
59024;SDS011;44806;48.008;13.666;2023-05-07T12:18:37;6.65;;;3.22;;
59024;SDS011;44806;48.008;13.666;2023-05-07T12:21:04;5.05;;;3.00;;
59024;SDS011;44806;48.008;13.666;2023-05-07T12:23:33;7.93;;;3.40;;
59024;SDS011;44806;48.008;13.666;2023-05-07T12:26:02;6.05;;;2.92;;
59024;SDS011;44806;48.008;13.666;2023-05-07T12:28:30;4.88;;;2.92;;
59024;SDS011;44806;48.008;13.666;2023-05-07T12:31:03;6.07;;;3.40;;
59024;SDS011;44806;48.008;13.666;2023-05-07T12:33:30;5.22;;;2.72;;
59024;SDS011;44806;48.008;13.666;2023-05-07T12:35:58;5.38;;;2.60;;
59024;SDS011;44806;48.008;13.666;2023-05-07T12:38:25;6.43;;;2.70;;
59024;SDS011;44806;48.008;13.666;2023-05-07T12:40:53;6.28;;;3.33;;
59024;SDS011;44806;48.008;13.666;2023-05-07T12:43:23;6.40;;;3.35;;
59024;SDS011;44806;48.008;13.666;2023-05-07T12:45:53;6.97;;;2.80;;
59024;SDS011;44806;48.008;13.666;2023-05-07T12:48:21;5.10;;;2.70;;
59024;SDS011;44806;48.008;13.666;2023-05-07T12:50:49;4.57;;;2.60;;
59024;SDS011;44806;48.008;13.666;2023-05-07T12:53:16;4.43;;;2.55;;
59024;SDS011;44806;48.008;13.666;2023-05-07T12:55:46;5.25;;;2.72;;
59024;SDS011;44806;48.008;13.666;2023-05-07T12:58:15;4.82;;;2.58;;
59024;SDS011;44806;48.008;13.666;2023-05-07T13:00:44;4.53;;;1.92;;
59024;SDS011;44806;48.008;13.666;2023-05-07T13:03:20;5.55;;;2.60;;
59024;SDS011;44806;48.008;13.666;2023-05-07T13:05:49;5.50;;;2.60;;
59024;SDS011;44806;48.008;13.666;2023-05-07T13:08:30;4.70;;;2.28;;
59024;SDS011;44806;48.008;13.666;2023-05-07T13:10:58;4.28;;;2.13;;
59024;SDS011;44806;48.008;13.666;2023-05-07T13:13:28;8.20;;;1.90;;
59024;SDS011;44806;48.008;13.666;2023-05-07T13:15:56;4.72;;;2.08;;
59024;SDS011;44806;48.008;13.666;2023-05-07T13:18:24;4.10;;;1.70;;
59024;SDS011;44806;48.008;13.666;2023-05-07T13:20:52;3.30;;;1.52;;
59024;SDS011;44806;48.008;13.666;2023-05-07T13:23:19;4.55;;;1.73;;
59024;SDS011;44806;48.008;13.666;2023-05-07T13:25:46;4.72;;;1.35;;
59024;SDS011;44806;48.008;13.666;2023-05-07T13:28:13;4.80;;;2.20;;
59024;SDS011;44806;48.008;13.666;2023-05-07T13:30:40;4.70;;;1.77;;
59024;SDS011;44806;48.008;13.666;2023-05-07T13:33:09;3.17;;;1.60;;
59024;SDS011;44806;48.008;13.666;2023-05-07T13:35:36;6.18;;;1.85;;
59024;SDS011;44806;48.008;13.666;2023-05-07T13:38:03;4.13;;;2.00;;
59024;SDS011;44806;48.008;13.666;2023-05-07T13:40:30;3.95;;;2.00;;
59024;SDS011;44806;48.008;13.666;2023-05-07T13:42:57;5.53;;;2.08;;
59024;SDS011;44806;48.008;13.666;2023-05-07T13:45:27;5.15;;;2.03;;
59024;SDS011;44806;48.008;13.666;2023-05-07T13:47:54;4.82;;;2.22;;
59024;SDS011;44806;48.008;13.666;2023-05-07T13:50:23;4.68;;;2.30;;
59024;SDS011;44806;48.008;13.666;2023-05-07T13:52:51;3.30;;;1.65;;
59024;SDS011;44806;48.008;13.666;2023-05-07T13:55:19;4.93;;;2.08;;
59024;SDS011;44806;48.008;13.666;2023-05-07T13:57:47;4.70;;;2.30;;
59024;SDS011;44806;48.008;13.666;2023-05-07T14:00:20;5.03;;;2.13;;
59024;SDS011;44806;48.008;13.666;2023-05-07T14:02:47;4.10;;;2.10;;
59024;SDS011;44806;48.008;13.666;2023-05-07T14:05:14;4.97;;;2.40;;
59024;SDS011;44806;48.008;13.666;2023-05-07T14:07:42;5.68;;;2.10;;
59024;SDS011;44806;48.008;13.666;2023-05-07T14:10:10;5.63;;;1.92;;
59024;SDS011;44806;48.008;13.666;2023-05-07T14:12:38;7.80;;;2.08;;
59024;SDS011;44806;48.008;13.666;2023-05-07T14:15:05;3.85;;;2.00;;
59024;SDS011;44806;48.008;13.666;2023-05-07T14:17:33;6.20;;;2.17;;
59024;SDS011;44806;48.008;13.666;2023-05-07T14:20:00;6.05;;;2.92;;
59024;SDS011;44806;48.008;13.666;2023-05-07T14:22:27;4.75;;;2.20;;
59024;SDS011;44806;48.008;13.666;2023-05-07T14:24:56;4.82;;;2.25;;
59024;SDS011;44806;48.008;13.666;2023-05-07T14:27:22;5.22;;;2.47;;
59024;SDS011;44806;48.008;13.666;2023-05-07T14:29:49;4.53;;;2.55;;
59024;SDS011;44806;48.008;13.666;2023-05-07T14:32:17;4.82;;;2.38;;
59024;SDS011;44806;48.008;13.666;2023-05-07T14:34:44;5.55;;;2.70;;
59024;SDS011;44806;48.008;13.666;2023-05-07T14:37:11;7.22;;;3.88;;
59024;SDS011;44806;48.008;13.666;2023-05-07T14:39:38;3.65;;;1.75;;
59024;SDS011;44806;48.008;13.666;2023-05-07T14:42:07;4.90;;;2.63;;
59024;SDS011;44806;48.008;13.666;2023-05-07T14:44:34;4.53;;;2.45;;
59024;SDS011;44806;48.008;13.666;2023-05-07T14:47:01;4.93;;;2.33;;
59024;SDS011;44806;48.008;13.666;2023-05-07T14:49:28;3.70;;;1.80;;
59024;SDS011;44806;48.008;13.666;2023-05-07T14:51:56;4.68;;;2.50;;